Time;durP1;ratioP1;P1;durP2;ratioP2;P2;SDS_P1;SDS_P2;PMS_P1;PMS_P2;Temp;Humidity;BMP_temperature;BMP_pressure;BME280_temperature;BME280_humidity;BME280_pressure;Samples;Min_cycle;Max_cycle;Signal;HPM_P1;HPM_P2
2021/12/12 00:00:29;;;;;;;35.42;20.85;;;4.30;99.90;;;;;;5094636;28;20032;-76
2021/12/12 00:03:05;;;;;;;35.92;22.83;;;4.30;99.90;;;;;;5106865;28;20085;-75
2021/12/12 00:05:37;;;;;;;38.92;23.05;;;4.40;99.90;;;;;;5111614;28;20491;-75
2021/12/12 00:08:03;;;;;;;38.50;22.40;;;4.30;99.90;;;;;;5109392;28;20448;-75
2021/12/12 00:10:35;;;;;;;44.63;24.35;;;4.40;99.90;;;;;;5092279;28;20113;-76
2021/12/12 00:13:11;;;;;;;40.78;24.02;;;4.30;99.90;;;;;;5106683;28;20032;-75
2021/12/12 00:15:37;;;;;;;38.83;22.35;;;4.30;99.90;;;;;;5094576;28;20063;-75
2021/12/12 00:18:03;;;;;;;36.88;23.42;;;4.30;99.90;;;;;;5110341;28;20495;-75
2021/12/12 00:20:30;;;;;;;39.13;24.30;;;4.30;99.90;;;;;;5109659;28;20039;-76
2021/12/12 00:22:59;;;;;;;39.22;23.30;;;4.30;99.90;;;;;;5092922;28;20078;-75
2021/12/12 00:25:28;;;;;;;39.17;23.27;;;4.30;99.90;;;;;;5094433;28;20078;-75
2021/12/12 00:27:54;;;;;;;38.90;23.83;;;4.30;99.90;;;;;;5109514;28;20066;-76
2021/12/12 00:30:20;;;;;;;35.40;23.15;;;4.40;99.90;;;;;;5094286;28;20090;-76
2021/12/12 00:32:45;;;;;;;36.70;22.10;;;4.40;99.90;;;;;;5109220;28;20439;-75
2021/12/12 00:35:14;;;;;;;38.42;23.60;;;4.40;99.90;;;;;;5094017;28;20086;-75
2021/12/12 00:37:40;;;;;;;38.55;21.55;;;4.50;99.90;;;;;;5109897;28;20036;-75
2021/12/12 00:40:10;;;;;;;36.83;21.83;;;4.40;99.90;;;;;;5111298;28;20031;-75
2021/12/12 00:42:37;;;;;;;35.67;22.15;;;4.40;99.90;;;;;;5088490;28;20047;-75
2021/12/12 00:45:08;;;;;;;38.97;23.52;;;4.40;99.90;;;;;;5090339;28;20118;-75
2021/12/12 00:47:34;;;;;;;39.90;21.20;;;4.40;99.90;;;;;;5107780;28;20031;-75
2021/12/12 00:50:00;;;;;;;35.92;21.70;;;4.40;99.90;;;;;;5114734;28;20088;-75
2021/12/12 00:52:25;;;;;;;36.47;23.17;;;4.50;99.90;;;;;;5129502;27;20028;-75
2021/12/12 00:54:51;;;;;;;36.67;22.27;;;4.50;99.90;;;;;;5097764;28;20036;-75
2021/12/12 00:57:19;;;;;;;38.65;22.27;;;4.50;99.90;;;;;;5095280;28;20059;-75
2021/12/12 00:59:47;;;;;;;36.05;21.90;;;4.40;99.90;;;;;;5113778;28;20126;-75
2021/12/12 01:02:20;;;;;;;37.25;21.92;;;4.40;99.90;;;;;;5096013;28;20027;-75
2021/12/12 01:04:50;;;;;;;33.13;22.50;;;4.40;99.90;;;;;;5096965;28;20043;-75
2021/12/12 01:07:22;;;;;;;34.30;22.55;;;4.40;99.90;;;;;;5113447;28;20040;-75
2021/12/12 01:09:58;;;;;;;35.90;21.70;;;4.40;99.90;;;;;;5096976;28;20042;-75
2021/12/12 01:12:31;;;;;;;34.28;19.70;;;4.40;99.90;;;;;;5142974;27;20032;-75
2021/12/12 01:15:14;;;;;;;35.78;20.85;;;4.50;99.90;;;;;;5096630;28;20035;-75
2021/12/12 01:17:44;;;;;;;37.65;21.83;;;4.50;99.90;;;;;;5112960;28;20074;-75
2021/12/12 01:20:20;;;;;;;34.53;21.00;;;4.40;99.90;;;;;;5114504;28;20024;-75
2021/12/12 01:22:50;;;;;;;35.22;20.42;;;4.50;99.90;;;;;;5096340;28;20123;-75
2021/12/12 01:25:43;;;;;;;35.47;22.55;;;4.50;99.90;;;;;;5114326;28;20035;-75
2021/12/12 01:28:11;;;;;;;36.72;23.25;;;4.60;99.90;;;;;;5096749;28;20501;-75
2021/12/12 01:30:37;;;;;;;38.25;22.15;;;4.50;99.90;;;;;;5097191;28;20036;-76
2021/12/12 01:33:02;;;;;;;36.53;22.15;;;4.50;99.90;;;;;;5096336;28;20047;-75
2021/12/12 01:35:29;;;;;;;35.85;22.02;;;4.50;99.90;;;;;;5096832;28;20044;-75
2021/12/12 01:40:49;;;;;;;36.95;21.95;;;4.50;99.90;;;;;;5114172;28;20039;-75
2021/12/12 01:43:25;;;;;;;37.88;22.48;;;4.50;99.90;;;;;;5095461;28;20487;-75
2021/12/12 01:46:00;;;;;;;36.65;21.70;;;4.50;99.90;;;;;;5093000;28;20036;-75
2021/12/12 01:48:48;;;;;;;29.25;18.30;;;4.50;99.90;;;;;;5095979;28;20067;-75
2021/12/12 01:51:14;;;;;;;34.33;18.95;;;4.60;99.90;;;;;;5095377;28;20035;-75
2021/12/12 01:53:46;;;;;;;28.10;19.13;;;4.60;99.90;;;;;;5096688;28;20475;-75
2021/12/12 01:56:26;;;;;;;33.25;19.98;;;4.70;99.90;;;;;;5095584;28;20119;-75
2021/12/12 01:58:54;;;;;;;29.95;19.35;;;4.70;99.90;;;;;;5095690;28;20032;-75
2021/12/12 02:01:33;;;;;;;37.78;20.67;;;4.70;99.90;;;;;;5092494;28;20085;-75
2021/12/12 02:04:05;;;;;;;35.03;19.80;;;4.60;99.90;;;;;;5113928;28;20043;-75
2021/12/12 02:06:32;;;;;;;32.55;19.65;;;4.70;99.90;;;;;;5095780;28;20043;-75
2021/12/12 02:08:58;;;;;;;33.92;20.35;;;4.60;99.90;;;;;;5095551;28;20035;-75
2021/12/12 02:11:28;;;;;;;33.00;20.20;;;4.70;99.90;;;;;;5111787;28;20048;-74
2021/12/12 02:13:57;;;;;;;37.47;20.90;;;4.70;99.90;;;;;;5113182;28;20039;-74
2021/12/12 02:16:26;;;;;;;28.67;19.80;;;4.70;99.90;;;;;;5111053;28;20046;-75
2021/12/12 02:18:56;;;;;;;31.92;19.38;;;4.70;99.90;;;;;;5112326;28;20036;-75
2021/12/12 02:21:35;;;;;;;32.88;19.65;;;4.60;99.90;;;;;;5112240;28;20032;-76
2021/12/12 02:35:46;;;;;;;29.75;17.17;;;4.70;99.90;;;;;;5033688;28;20148;-75
2021/12/12 02:38:24;;;;;;;29.90;17.30;;;4.70;99.90;;;;;;5093723;28;20145;-75
2021/12/12 02:40:54;;;;;;;26.83;17.60;;;4.80;99.90;;;;;;5111757;28;20510;-75
2021/12/12 02:43:24;;;;;;;27.23;17.00;;;4.80;99.90;;;;;;5094885;28;20533;-75
2021/12/12 02:45:54;;;;;;;31.58;17.13;;;4.70;99.90;;;;;;5096112;28;20050;-75
2021/12/12 02:48:26;;;;;;;30.05;17.15;;;4.80;99.90;;;;;;5111011;28;20035;-75
2021/12/12 02:50:53;;;;;;;27.83;16.40;;;4.70;99.90;;;;;;5095764;28;20492;-75
2021/12/12 02:53:33;;;;;;;30.33;17.33;;;4.70;99.90;;;;;;5109859;28;20042;-75
2021/12/12 02:56:04;;;;;;;23.25;13.90;;;4.70;99.90;;;;;;5113028;28;20395;-75
2021/12/12 02:58:31;;;;;;;29.63;16.90;;;4.80;99.90;;;;;;5094824;28;20039;-75
2021/12/12 03:01:07;;;;;;;26.88;15.05;;;4.80;99.90;;;;;;5110160;28;20042;-75
2021/12/12 03:03:36;;;;;;;24.85;15.38;;;4.80;99.90;;;;;;5111340;28;20043;-75
2021/12/12 03:06:03;;;;;;;26.20;14.80;;;4.90;99.90;;;;;;5094536;28;20478;-75
2021/12/12 03:08:28;;;;;;;27.27;15.38;;;4.90;99.90;;;;;;5108127;28;20127;-75
2021/12/12 03:10:55;;;;;;;25.23;15.18;;;4.90;99.90;;;;;;5094934;28;20070;-75
2021/12/12 03:13:23;;;;;;;21.17;11.45;;;4.90;99.90;;;;;;5106995;28;20551;-75
2021/12/12 03:15:49;;;;;;;22.73;12.85;;;5.00;99.90;;;;;;5111903;28;20035;-75
2021/12/12 03:18:40;;;;;;;22.63;12.90;;;4.90;99.90;;;;;;5094170;28;20032;-75
2021/12/12 03:21:16;;;;;;;25.13;13.95;;;5.00;99.90;;;;;;5094004;28;20031;-75
2021/12/12 03:23:52;;;;;;;27.40;14.52;;;5.00;99.90;;;;;;5127991;27;20027;-75
2021/12/12 03:26:19;;;;;;;21.77;12.38;;;4.90;99.90;;;;;;5111095;28;20067;-75
2021/12/12 03:28:48;;;;;;;26.73;13.57;;;5.00;99.90;;;;;;5094934;28;20080;-75
2021/12/12 03:31:27;;;;;;;27.35;13.88;;;5.00;99.90;;;;;;5107085;28;20027;-75
2021/12/12 03:33:53;;;;;;;21.80;13.23;;;5.00;99.90;;;;;;5101916;28;20058;-74
2021/12/12 03:36:19;;;;;;;22.30;11.50;;;5.10;99.90;;;;;;5091654;28;20067;-74
2021/12/12 03:38:53;;;;;;;24.67;12.63;;;5.00;99.90;;;;;;5090561;28;20062;-75
2021/12/12 03:41:23;;;;;;;24.58;12.77;;;5.00;99.90;;;;;;5094891;28;20074;-75
2021/12/12 03:43:52;;;;;;;19.63;10.90;;;5.10;99.90;;;;;;5093739;28;20039;-74
2021/12/12 03:46:18;;;;;;;23.23;11.75;;;5.10;99.90;;;;;;5111995;28;20387;-75
2021/12/12 03:48:44;;;;;;;20.17;11.05;;;5.00;99.90;;;;;;5109799;28;20031;-75
2021/12/12 03:51:13;;;;;;;21.88;11.48;;;5.10;99.90;;;;;;5092104;28;20396;-75
2021/12/12 03:53:39;;;;;;;16.50;10.45;;;5.10;99.90;;;;;;5093750;28;20064;-75
2021/12/12 03:56:08;;;;;;;21.98;10.35;;;5.20;99.90;;;;;;5108508;28;20048;-75
2021/12/12 03:58:33;;;;;;;19.73;11.82;;;5.20;99.90;;;;;;5090026;28;20043;-75
2021/12/12 04:01:22;;;;;;;18.20;11.40;;;5.20;99.90;;;;;;5107792;28;20035;-75
2021/12/12 04:03:49;;;;;;;17.92;9.57;;;5.30;99.90;;;;;;5140543;27;20075;-75
2021/12/12 04:06:18;;;;;;;23.48;11.27;;;5.30;99.90;;;;;;5108103;28;20538;-75
2021/12/12 04:08:47;;;;;;;19.35;9.52;;;5.20;99.90;;;;;;5090970;28;20092;-75
2021/12/12 04:11:26;;;;;;;15.10;9.45;;;5.30;99.90;;;;;;5108732;28;20031;-75
2021/12/12 04:13:54;;;;;;;13.48;7.65;;;5.30;99.90;;;;;;5091812;28;20042;-75
2021/12/12 04:16:20;;;;;;;18.88;9.48;;;5.40;99.90;;;;;;5110779;28;20079;-75
2021/12/12 04:18:47;;;;;;;12.63;7.55;;;5.40;99.90;;;;;;5106515;28;20035;-75
2021/12/12 04:21:16;;;;;;;14.68;6.78;;;5.50;99.90;;;;;;5087351;28;20032;-75
2021/12/12 04:23:42;;;;;;;14.82;8.77;;;5.60;99.90;;;;;;5112992;28;20118;-75
2021/12/12 04:26:29;;;;;;;11.98;7.05;;;5.40;99.90;;;;;;5112649;28;20567;-75
2021/12/12 04:29:01;;;;;;;10.13;7.20;;;5.50;99.90;;;;;;5112768;28;20454;-75
2021/12/12 04:31:28;;;;;;;13.52;7.78;;;5.50;99.90;;;;;;5096804;28;20039;-74
2021/12/12 04:33:54;;;;;;;17.77;8.75;;;5.50;99.90;;;;;;5092839;28;20032;-74
2021/12/12 04:36:29;;;;;;;14.23;8.55;;;5.50;99.90;;;;;;5095230;28;20036;-75
2021/12/12 04:39:05;;;;;;;15.23;7.82;;;5.50;99.90;;;;;;5098446;28;20375;-75
2021/12/12 04:41:31;;;;;;;14.68;7.03;;;5.50;99.90;;;;;;5111827;28;20039;-75
2021/12/12 04:43:56;;;;;;;13.52;7.05;;;5.60;99.90;;;;;;5092187;28;20034;-75
2021/12/12 04:46:26;;;;;;;14.00;7.13;;;5.60;99.90;;;;;;5094323;28;20081;-74
2021/12/12 04:51:51;;;;;;;9.80;5.95;;;5.60;99.90;;;;;;5114472;28;20040;-75
2021/12/12 04:54:30;;;;;;;12.48;7.18;;;5.60;99.90;;;;;;5096026;28;20031;-75
2021/12/12 04:57:01;;;;;;;10.10;6.38;;;5.60;99.90;;;;;;5096383;28;20031;-75
2021/12/12 04:59:32;;;;;;;12.93;6.93;;;5.70;99.90;;;;;;5113300;28;20039;-75
2021/12/12 05:02:24;;;;;;;6.72;3.88;;;5.70;99.90;;;;;;5112373;28;20063;-75
2021/12/12 05:05:08;;;;;;;11.43;6.37;;;5.70;99.90;;;;;;5055801;28;20040;-74
2021/12/12 05:08:00;;;;;;;12.93;5.68;;;5.70;99.90;;;;;;5094576;28;20043;-74
2021/12/12 05:10:37;;;;;;;7.03;3.97;;;5.80;99.90;;;;;;5057630;28;20054;-74
2021/12/12 05:13:25;;;;;;;8.93;5.20;;;5.70;99.90;;;;;;5095961;28;20046;-75
2021/12/12 05:15:57;;;;;;;7.45;4.13;;;5.70;99.90;;;;;;5095489;28;20437;-74
2021/12/12 05:18:29;;;;;;;10.25;7.07;;;5.80;99.90;;;;;;5112405;28;20430;-74
2021/12/12 05:21:08;;;;;;;9.50;5.87;;;5.80;99.90;;;;;;5094318;28;20067;-75
2021/12/12 05:23:35;;;;;;;8.93;4.40;;;5.80;99.90;;;;;;5111788;28;20876;-74
2021/12/12 05:26:06;;;;;;;9.88;5.68;;;5.90;99.90;;;;;;5126211;27;20032;-74
2021/12/12 05:29:00;;;;;;;10.15;5.35;;;5.80;99.90;;;;;;5092678;28;20080;-75
2021/12/12 05:31:27;;;;;;;9.02;4.80;;;5.90;99.90;;;;;;5084603;28;20044;-75
2021/12/12 05:33:54;;;;;;;9.40;5.28;;;5.90;99.90;;;;;;5110203;28;20036;-74
2021/12/12 05:36:21;;;;;;;9.15;5.53;;;5.90;99.90;;;;;;5109384;28;20114;-75
2021/12/12 05:38:48;;;;;;;9.50;5.03;;;5.90;99.90;;;;;;5112254;28;20484;-75
2021/12/12 05:41:18;;;;;;;6.57;3.47;;;5.90;99.90;;;;;;5110017;28;20027;-75
2021/12/12 05:43:48;;;;;;;7.72;4.60;;;5.90;99.90;;;;;;5093360;28;20392;-74
2021/12/12 05:46:18;;;;;;;8.52;4.22;;;5.90;99.90;;;;;;5095211;28;20055;-75
2021/12/12 05:48:45;;;;;;;8.32;4.85;;;5.90;99.90;;;;;;5094407;28;20042;-74
2021/12/12 05:51:11;;;;;;;9.15;5.22;;;6.00;99.90;;;;;;5092867;28;20122;-74
2021/12/12 05:53:37;;;;;;;9.05;4.78;;;5.90;99.90;;;;;;5095924;28;20590;-74
2021/12/12 05:56:04;;;;;;;5.63;3.53;;;5.90;99.90;;;;;;5112188;28;20046;-75
2021/12/12 05:58:30;;;;;;;7.40;4.05;;;6.10;99.90;;;;;;5111571;28;20479;-75
2021/12/12 06:01:09;;;;;;;8.75;5.20;;;6.10;99.90;;;;;;5094880;28;20031;-75
2021/12/12 06:03:38;;;;;;;5.35;3.00;;;6.00;99.90;;;;;;5112709;28;20045;-74
2021/12/12 06:06:09;;;;;;;6.80;3.25;;;6.10;99.90;;;;;;5108707;28;20031;-75
2021/12/12 06:08:36;;;;;;;6.07;3.20;;;6.10;99.90;;;;;;5112708;27;20038;-75
2021/12/12 06:11:02;;;;;;;8.95;4.57;;;6.10;99.90;;;;;;5110392;28;20032;-74
2021/12/12 06:13:29;;;;;;;5.53;2.97;;;6.10;99.90;;;;;;5095591;28;20031;-74
2021/12/12 06:15:56;;;;;;;6.18;3.42;;;6.00;99.90;;;;;;5107499;28;20067;-74
2021/12/12 06:18:25;;;;;;;9.73;3.70;;;6.00;99.90;;;;;;5111348;28;20044;-74
2021/12/12 06:20:52;;;;;;;5.13;3.00;;;6.10;99.90;;;;;;5111062;28;20043;-74
2021/12/12 06:23:18;;;;;;;8.15;4.68;;;6.10;99.90;;;;;;5110125;28;20072;-74
2021/12/12 06:25:46;;;;;;;6.68;3.63;;;6.10;99.90;;;;;;5108724;28;20103;-74
2021/12/12 06:28:27;;;;;;;8.23;5.00;;;6.10;99.90;;;;;;5109919;28;20038;-74
2021/12/12 06:30:53;;;;;;;6.47;3.70;;;6.10;99.90;;;;;;5093886;28;20043;-74
2021/12/12 06:33:18;;;;;;;7.22;5.13;;;6.20;99.90;;;;;;5109528;28;20043;-74
2021/12/12 06:35:44;;;;;;;7.45;4.90;;;6.20;99.90;;;;;;5105807;28;20074;-74
2021/12/12 06:38:12;;;;;;;6.80;4.03;;;6.20;99.90;;;;;;5110535;28;20068;-74
2021/12/12 06:40:39;;;;;;;8.68;4.63;;;6.10;99.90;;;;;;5090971;28;20028;-74
2021/12/12 06:43:07;;;;;;;9.40;4.72;;;6.20;99.90;;;;;;5092998;28;20042;-74
2021/12/12 06:45:33;;;;;;;8.35;3.90;;;6.20;99.90;;;;;;5107805;28;20525;-74
2021/12/12 06:47:59;;;;;;;7.18;3.90;;;6.20;99.90;;;;;;5093224;28;20046;-74
2021/12/12 06:50:27;;;;;;;8.13;4.95;;;6.20;99.90;;;;;;5094872;28;20036;-74
2021/12/12 06:52:54;;;;;;;7.85;4.72;;;6.30;99.90;;;;;;5093910;28;20043;-74
2021/12/12 06:55:21;;;;;;;8.88;4.63;;;6.20;99.90;;;;;;5110411;28;20097;-74
2021/12/12 06:57:48;;;;;;;8.98;4.13;;;6.30;99.90;;;;;;5111540;28;20032;-74
2021/12/12 07:00:19;;;;;;;7.30;4.60;;;6.40;99.90;;;;;;5109111;28;20088;-74
2021/12/12 07:02:45;;;;;;;5.63;2.67;;;6.40;99.90;;;;;;5089870;28;20036;-74
2021/12/12 07:05:19;;;;;;;6.00;3.15;;;6.30;99.90;;;;;;5133939;27;20070;-74
2021/12/12 07:07:46;;;;;;;7.68;4.95;;;6.30;99.90;;;;;;5092413;28;20043;-74
2021/12/12 07:10:15;;;;;;;7.60;4.47;;;6.40;99.90;;;;;;5109100;28;20492;-74
2021/12/12 07:12:42;;;;;;;8.20;4.40;;;6.40;99.90;;;;;;5107295;28;20035;-75
2021/12/12 07:15:11;;;;;;;7.22;3.88;;;6.40;99.90;;;;;;5125080;27;20491;-74
2021/12/12 07:17:37;;;;;;;7.18;3.88;;;6.40;99.90;;;;;;5107475;28;20036;-75
2021/12/12 07:20:06;;;;;;;6.30;3.42;;;6.40;99.90;;;;;;5089890;28;20084;-74
2021/12/12 07:22:33;;;;;;;7.03;4.07;;;6.50;99.90;;;;;;5103417;28;20051;-74
2021/12/12 07:25:04;;;;;;;5.68;3.05;;;6.50;99.90;;;;;;5105611;28;20039;-74
2021/12/12 07:27:30;;;;;;;3.53;2.30;;;6.50;99.90;;;;;;5094410;28;20051;-74
2021/12/12 07:29:57;;;;;;;7.20;3.35;;;6.50;99.90;;;;;;5121561;27;20047;-74
2021/12/12 07:32:24;;;;;;;7.15;3.95;;;6.50;99.90;;;;;;5090665;28;20123;-74
2021/12/12 07:34:50;;;;;;;7.53;4.15;;;6.50;99.90;;;;;;5110370;28;20050;-74
2021/12/12 07:37:16;;;;;;;8.05;5.00;;;6.50;99.90;;;;;;5107665;28;20118;-75
2021/12/12 07:39:42;;;;;;;6.60;3.90;;;6.50;99.90;;;;;;5111675;28;20031;-74
2021/12/12 07:42:09;;;;;;;7.22;3.33;;;6.60;99.90;;;;;;5090181;28;20047;-74
2021/12/12 07:44:38;;;;;;;6.75;3.63;;;6.50;99.90;;;;;;5090836;28;20516;-74
2021/12/12 07:47:07;;;;;;;7.70;4.35;;;6.60;99.90;;;;;;5108629;28;20083;-74
2021/12/12 07:49:37;;;;;;;6.40;3.90;;;6.60;99.90;;;;;;5106405;28;20389;-74
2021/12/12 07:52:07;;;;;;;6.68;3.70;;;6.60;99.90;;;;;;5144944;27;20368;-74
2021/12/12 07:54:33;;;;;;;7.70;4.43;;;6.60;99.90;;;;;;5105234;28;20428;-74
2021/12/12 07:56:59;;;;;;;7.78;4.57;;;6.70;99.90;;;;;;5110115;28;20492;-74
2021/12/12 07:59:26;;;;;;;6.15;3.38;;;6.60;99.90;;;;;;5090748;28;20116;-74
2021/12/12 08:01:52;;;;;;;8.00;4.82;;;6.70;99.90;;;;;;5108111;28;20115;-75
2021/12/12 08:04:21;;;;;;;7.55;4.35;;;6.70;99.90;;;;;;5087766;28;20036;-74
2021/12/12 08:06:48;;;;;;;7.93;4.75;;;6.70;99.90;;;;;;5110459;28;20038;-74
2021/12/12 08:09:15;;;;;;;6.65;4.38;;;6.70;99.90;;;;;;5109268;28;20035;-74
2021/12/12 08:11:43;;;;;;;9.10;5.30;;;6.80;99.90;;;;;;5110466;28;20036;-74
2021/12/12 08:14:12;;;;;;;7.78;5.18;;;6.80;99.90;;;;;;5108999;28;20027;-74
2021/12/12 08:16:39;;;;;;;8.65;5.47;;;6.80;99.90;;;;;;5111584;28;20416;-74
2021/12/12 08:19:05;;;;;;;8.77;5.85;;;6.70;99.90;;;;;;5090615;28;20042;-74
2021/12/12 08:21:33;;;;;;;8.02;5.15;;;6.70;99.90;;;;;;5092682;28;20036;-74
2021/12/12 08:24:06;;;;;;;8.77;5.45;;;6.70;99.90;;;;;;5102823;28;20058;-74
2021/12/12 08:26:35;;;;;;;7.07;4.10;;;6.80;99.90;;;;;;5109019;28;20078;-74
2021/12/12 08:29:01;;;;;;;7.15;4.55;;;6.80;99.90;;;;;;5138517;27;20492;-74
2021/12/12 08:31:27;;;;;;;7.80;5.10;;;6.90;99.90;;;;;;5107127;28;20039;-74
2021/12/12 08:33:53;;;;;;;7.82;5.00;;;6.90;99.90;;;;;;5121652;28;20573;-74
2021/12/12 08:36:19;;;;;;;8.57;4.32;;;6.90;99.90;;;;;;5108973;28;20118;-74
2021/12/12 08:38:45;;;;;;;8.57;4.78;;;7.00;99.90;;;;;;5085348;28;20028;-74
2021/12/12 08:41:10;;;;;;;8.43;4.75;;;7.00;99.90;;;;;;5092572;28;20042;-74
2021/12/12 08:43:36;;;;;;;7.97;5.18;;;7.00;99.90;;;;;;5107822;28;20039;-74
2021/12/12 08:46:09;;;;;;;9.02;5.32;;;7.00;99.90;;;;;;5108795;28;20051;-74
2021/12/12 08:48:43;;;;;;;9.10;6.03;;;7.00;99.90;;;;;;5105979;28;20396;-74
2021/12/12 08:51:30;;;;;;;7.93;4.13;;;7.00;99.90;;;;;;5091940;28;20377;-74
2021/12/12 08:54:01;;;;;;;8.35;5.32;;;7.10;99.90;;;;;;5103659;28;20093;-74
2021/12/12 08:56:42;;;;;;;7.65;4.82;;;7.10;99.90;;;;;;5108762;28;20036;-74
2021/12/12 08:59:11;;;;;;;8.38;5.20;;;7.10;99.90;;;;;;5088096;28;20032;-74
2021/12/12 09:01:39;;;;;;;8.65;5.55;;;7.20;99.90;;;;;;5108840;28;20046;-74
2021/12/12 09:04:07;;;;;;;8.38;5.50;;;7.20;99.90;;;;;;5107619;28;20503;-74
2021/12/12 09:06:36;;;;;;;9.80;6.55;;;7.20;99.90;;;;;;5109769;28;20094;-74
2021/12/12 09:09:14;;;;;;;10.07;5.78;;;7.30;99.90;;;;;;5087579;28;20050;-74
2021/12/12 09:11:51;;;;;;;10.60;6.47;;;7.20;99.90;;;;;;5112179;28;20036;-74
2021/12/12 09:14:37;;;;;;;9.50;6.32;;;7.30;99.90;;;;;;5092327;28;20039;-74
2021/12/12 09:17:28;;;;;;;11.55;6.93;;;7.30;99.90;;;;;;5112397;28;20466;-74
2021/12/12 09:20:02;;;;;;;10.35;6.50;;;7.40;99.90;;;;;;5090922;28;20502;-74
2021/12/12 09:22:36;;;;;;;10.90;7.93;;;7.30;99.90;;;;;;5094285;28;20076;-74
2021/12/12 09:25:11;;;;;;;12.05;7.15;;;7.40;99.90;;;;;;5091036;28;20071;-74
2021/12/12 09:28:04;;;;;;;12.13;7.43;;;7.40;99.90;;;;;;5095415;28;20160;-74
2021/12/12 09:30:30;;;;;;;9.05;5.30;;;7.40;99.90;;;;;;5090464;28;20035;-74
2021/12/12 09:33:24;;;;;;;11.45;6.88;;;7.50;99.90;;;;;;5107881;28;20096;-74
2021/12/12 09:35:59;;;;;;;10.55;6.30;;;7.50;99.90;;;;;;5105882;28;20484;-74
2021/12/12 09:38:33;;;;;;;15.13;7.82;;;7.60;99.90;;;;;;5093255;28;20164;-74
2021/12/12 09:41:23;;;;;;;12.13;7.72;;;7.60;99.90;;;;;;5139493;27;20038;-74
2021/12/12 09:44:39;;;;;;;14.45;8.13;;;7.70;99.90;;;;;;5109582;28;20126;-74
2021/12/12 09:47:46;;;;;;;14.18;9.20;;;7.70;99.90;;;;;;5112214;27;20040;-74
2021/12/12 09:53:56;;;;;;;15.75;8.80;;;7.70;99.90;;;;;;5051430;28;20037;-74
2021/12/12 09:56:43;;;;;;;16.80;10.93;;;7.70;99.90;;;;;;5092469;28;20077;-74
2021/12/12 09:59:32;;;;;;;16.33;9.05;;;7.80;99.90;;;;;;5110323;28;20039;-74
2021/12/12 10:02:12;;;;;;;15.85;10.45;;;7.80;99.90;;;;;;5107890;28;20046;-74
2021/12/12 10:05:15;;;;;;;19.95;11.15;;;7.90;99.90;;;;;;5094032;28;20042;-74
2021/12/12 10:07:54;;;;;;;20.13;12.15;;;7.90;99.90;;;;;;5094894;28;20136;-74
2021/12/12 10:10:25;;;;;;;17.80;10.60;;;7.90;99.90;;;;;;5092725;28;20078;-75
2021/12/12 10:13:13;;;;;;;20.73;13.75;;;8.00;99.90;;;;;;5109755;28;20055;-74
2021/12/12 10:15:44;;;;;;;19.27;12.63;;;8.00;99.90;;;;;;5146457;27;20069;-74
2021/12/12 10:18:28;;;;;;;21.70;10.10;;;7.90;99.90;;;;;;5109180;28;20040;-74
2021/12/12 10:21:08;;;;;;;20.27;13.05;;;8.00;99.90;;;;;;5139735;27;20027;-74
2021/12/12 10:23:46;;;;;;;19.00;12.77;;;8.00;99.90;;;;;;5093914;28;20032;-74
2021/12/12 10:26:38;;;;;;;18.80;11.70;;;8.00;99.90;;;;;;5128126;27;20046;-74
2021/12/12 10:29:12;;;;;;;16.27;9.07;;;8.00;99.90;;;;;;5094575;28;20518;-74
2021/12/12 10:31:54;;;;;;;16.33;10.18;;;8.20;99.90;;;;;;5111608;28;20097;-74
2021/12/12 10:34:26;;;;;;;16.52;10.65;;;8.30;99.90;;;;;;5094615;28;20047;-74
2021/12/12 10:37:17;;;;;;;16.67;9.68;;;8.30;99.90;;;;;;5112275;28;20039;-74
2021/12/12 10:40:02;;;;;;;16.58;10.38;;;8.40;99.90;;;;;;5111915;28;20472;-74
2021/12/12 10:42:32;;;;;;;16.33;9.10;;;8.40;99.90;;;;;;5110667;28;20051;-74
2021/12/12 10:45:10;;;;;;;17.40;10.77;;;8.40;99.90;;;;;;5108893;28;20047;-74
2021/12/12 10:47:48;;;;;;;18.23;11.57;;;8.40;99.90;;;;;;5088819;28;20036;-74
2021/12/12 10:50:31;;;;;;;19.08;10.30;;;8.20;99.90;;;;;;5109815;28;20119;-74
2021/12/12 10:53:03;;;;;;;17.55;10.18;;;8.40;99.90;;;;;;5111393;28;20036;-74
2021/12/12 10:55:43;;;;;;;19.60;11.43;;;8.50;99.90;;;;;;5093649;28;20134;-74
2021/12/12 10:58:19;;;;;;;18.67;11.77;;;8.40;99.90;;;;;;5111787;28;20657;-74
2021/12/12 11:00:48;;;;;;;19.70;11.95;;;8.40;99.90;;;;;;5107685;28;20048;-74
2021/12/12 11:03:31;;;;;;;19.38;12.07;;;8.40;99.90;;;;;;5094055;28;20160;-74
2021/12/12 11:06:05;;;;;;;22.10;12.40;;;8.40;99.90;;;;;;5109382;28;20039;-74
2021/12/12 11:08:38;;;;;;;16.30;10.73;;;8.50;99.90;;;;;;5092172;28;20448;-74
2021/12/12 11:11:17;;;;;;;16.30;10.13;;;8.50;99.90;;;;;;5086941;28;20425;-74
2021/12/12 11:13:58;;;;;;;17.40;9.93;;;8.60;99.90;;;;;;5106330;28;20475;-74
2021/12/12 11:16:33;;;;;;;11.93;7.43;;;8.60;99.90;;;;;;5092331;28;20039;-74
2021/12/12 11:19:08;;;;;;;17.67;11.20;;;8.70;99.90;;;;;;5090762;28;20094;-74
2021/12/12 11:21:39;;;;;;;17.67;9.18;;;8.70;99.90;;;;;;5120527;27;20036;-74
2021/12/12 11:24:29;;;;;;;17.13;10.35;;;8.70;99.90;;;;;;5106884;28;20067;-74
2021/12/12 11:27:12;;;;;;;16.73;9.90;;;8.80;99.90;;;;;;5108264;28;20110;-74
2021/12/12 11:29:47;;;;;;;15.52;10.30;;;8.80;99.90;;;;;;5091250;28;20072;-74
2021/12/12 11:32:21;;;;;;;13.63;7.97;;;8.70;99.90;;;;;;5090266;28;20032;-74
2021/12/12 11:34:49;;;;;;;13.00;7.30;;;8.90;99.90;;;;;;5091575;28;20051;-74
2021/12/12 11:37:40;;;;;;;15.68;10.18;;;8.90;99.90;;;;;;5089891;28;20066;-74
2021/12/12 11:40:13;;;;;;;17.60;9.75;;;8.90;99.90;;;;;;5125359;27;20089;-74
2021/12/12 11:43:00;;;;;;;14.30;8.13;;;8.80;99.90;;;;;;5091801;28;20133;-74
2021/12/12 11:45:44;;;;;;;11.68;6.80;;;9.00;99.90;;;;;;5088551;28;20044;-74
2021/12/12 11:48:47;;;;;;;14.15;7.60;;;9.00;99.90;;;;;;5108666;28;20028;-74
2021/12/12 11:51:24;;;;;;;14.35;8.52;;;8.90;99.90;;;;;;5091847;28;20043;-74
2021/12/12 11:53:56;;;;;;;14.98;9.10;;;8.90;99.90;;;;;;5106961;28;20123;-74
2021/12/12 11:56:34;;;;;;;14.68;7.80;;;9.00;99.90;;;;;;5109807;28;20035;-74
2021/12/12 11:59:15;;;;;;;13.25;8.88;;;9.00;99.90;;;;;;5088167;28;20035;-74
2021/12/12 12:01:47;;;;;;;12.65;7.90;;;9.00;99.90;;;;;;5105286;28;20110;-74
2021/12/12 12:04:44;;;;;;;14.68;9.07;;;9.10;99.90;;;;;;5090513;28;20047;-74
2021/12/12 12:07:13;;;;;;;17.02;10.15;;;9.10;99.90;;;;;;5107274;28;20032;-74
2021/12/12 12:09:55;;;;;;;14.23;9.18;;;9.10;99.90;;;;;;5091335;28;20271;-74
2021/12/12 12:12:57;;;;;;;16.20;10.23;;;9.00;99.90;;;;;;5106371;28;20052;-74
2021/12/12 12:15:41;;;;;;;13.90;8.13;;;9.10;99.90;;;;;;5056945;28;20580;-74
2021/12/12 12:18:41;;;;;;;14.85;9.57;;;9.10;99.90;;;;;;5106615;28;20046;-74
2021/12/12 12:21:28;;;;;;;14.23;8.98;;;9.10;99.90;;;;;;5104336;28;20042;-74
2021/12/12 12:26:58;;;;;;;15.43;9.50;;;9.20;99.90;;;;;;5105881;28;20044;-74
2021/12/12 12:29:27;;;;;;;15.23;9.45;;;9.20;99.90;;;;;;5092380;28;20088;-74
2021/12/12 12:32:34;;;;;;;12.90;7.80;;;9.20;99.90;;;;;;5085640;28;20035;-74
2021/12/12 12:35:37;;;;;;;13.05;8.35;;;9.30;99.90;;;;;;5091692;28;20051;-74
2021/12/12 12:38:34;;;;;;;13.73;9.60;;;9.20;99.90;;;;;;5114915;28;20055;-74
2021/12/12 12:41:21;;;;;;;15.50;9.57;;;9.20;99.90;;;;;;5139399;27;20035;-74
2021/12/12 12:44:05;;;;;;;14.68;9.13;;;9.20;99.90;;;;;;5107223;28;20484;-74
2021/12/12 12:47:07;;;;;;;14.75;9.77;;;9.20;99.90;;;;;;5092272;28;20495;-74
2021/12/12 12:49:52;;;;;;;;;;;9.30;99.90;;;;;;5145434;27;20054;-73
2021/12/12 12:52:46;;;;;;;14.25;8.93;;;9.30;99.90;;;;;;5109003;28;20018;-74
2021/12/12 12:55:30;;;;;;;16.33;10.18;;;9.20;99.90;;;;;;5090886;28;20032;-74
2021/12/12 12:58:10;;;;;;;19.25;10.43;;;9.30;99.90;;;;;;5108705;28;20040;-74
2021/12/12 13:00:37;;;;;;;12.18;7.53;;;9.20;99.90;;;;;;5093422;28;20031;-73
2021/12/12 13:03:16;;;;;;;15.25;9.45;;;9.40;99.90;;;;;;5112347;28;20421;-73
2021/12/12 13:06:09;;;;;;;13.23;8.35;;;9.40;99.90;;;;;;5127035;27;20383;-74
2021/12/12 13:08:50;;;;;;;15.75;8.88;;;9.40;99.90;;;;;;5107425;28;20043;-73
2021/12/12 13:11:17;;;;;;;13.82;9.05;;;9.40;99.90;;;;;;5110641;28;20783;-74
2021/12/12 13:13:52;;;;;;;14.20;8.90;;;9.40;99.90;;;;;;5093588;28;20039;-74
2021/12/12 13:16:37;;;;;;;14.05;8.77;;;9.40;99.90;;;;;;5094051;28;20039;-74
2021/12/12 13:19:16;;;;;;;14.52;9.35;;;9.50;99.90;;;;;;5096030;28;20043;-74
2021/12/12 13:22:02;;;;;;;15.10;9.13;;;9.40;99.90;;;;;;5110800;28;20050;-74
2021/12/12 13:24:47;;;;;;;13.95;9.30;;;9.50;99.90;;;;;;5141855;27;20043;-74
2021/12/12 13:27:58;;;;;;;13.48;8.65;;;9.50;99.90;;;;;;5108409;28;20043;-74
2021/12/12 13:30:40;;;;;;;12.30;7.95;;;9.50;99.90;;;;;;5092390;28;20052;-74
2021/12/12 13:33:26;;;;;;;15.38;9.23;;;9.60;99.90;;;;;;5112609;28;20035;-74
2021/12/12 13:36:30;;;;;;;12.82;7.88;;;9.60;99.90;;;;;;5094460;28;20159;-73
2021/12/12 13:39:25;;;;;;;12.93;8.90;;;9.70;99.90;;;;;;5108545;28;20055;-73
2021/12/12 13:42:27;;;;;;;13.32;8.82;;;9.60;99.90;;;;;;5110720;28;20042;-74
2021/12/12 13:45:24;;;;;;;13.63;8.55;;;9.60;99.90;;;;;;5125665;27;20047;-74